Terminal Aerodrome Forecast
Issued by NWS

Home | Current Version | Previous Version | Text Only | Print | Product List | Glossary On
Versions: 1 2 3 4 5 6 7 8 9 10 11 12 13 14 15 16 17 18 19 20 21 22 23 24 25 26 27 28 29 30 31 32 33 34 35 36 37 38
687
FTUS43 KDMX 032329
TAFFOD
TAF
KFOD 032329Z 0400/0424 16006KT 2SM -SNRA BKN004 OVC015
     FM040700 16008KT 3SM -SN OVC004
     FM041000 17008KT P6SM -SN OVC004
     FM041300 20006KT P6SM OVC004
     FM041500 22007KT P6SM OVC007
     FM041800 25010KT P6SM SCT015=

USA.gov is the U.S. government's official web portal to all federal, state and local government web resources and services.